createdAt,value
2023-05-02T00:02:18.135Z,11.66
2023-05-02T00:04:45.224Z,11.55
2023-05-02T00:07:12.324Z,11.39
2023-05-02T00:09:39.259Z,11.28
2023-05-02T00:12:06.268Z,11.17
2023-05-02T00:14:33.290Z,11.05
2023-05-02T00:17:00.315Z,10.91
2023-05-02T00:19:27.374Z,10.76
2023-05-02T00:21:54.341Z,10.81
2023-05-02T00:24:21.280Z,10.87
2023-05-02T00:26:48.259Z,10.76
2023-05-02T00:29:15.289Z,10.66
2023-05-02T00:31:42.270Z,10.56
2023-05-02T00:34:09.238Z,10.56
2023-05-02T00:36:36.225Z,10.73
2023-05-02T00:39:04.253Z,10.89
2023-05-02T00:41:31.381Z,10.72
2023-05-02T00:43:58.787Z,10.52
2023-05-02T00:46:26.063Z,10.31
2023-05-02T00:48:53.334Z,10.44
2023-05-02T00:51:20.391Z,10.44
2023-05-02T00:53:47.404Z,10.23
2023-05-02T00:56:14.412Z,10.28
2023-05-02T00:58:41.887Z,10.39
2023-05-02T01:01:35.332Z,10.36
2023-05-02T01:04:27.188Z,10.17
2023-05-02T01:07:47.592Z,10.09
2023-05-02T01:10:54.313Z,10.09
2023-05-02T01:13:32.678Z,10.12
2023-05-02T01:16:01.525Z,10.05
2023-05-02T01:18:34.981Z,10.08
2023-05-02T01:21:06.801Z,10.29
2023-05-02T01:24:01.590Z,10.04
2023-05-02T01:26:55.549Z,10.11
2023-05-02T01:29:23.952Z,10.09
2023-05-02T01:31:51.500Z,10.11
2023-05-02T01:34:21.481Z,9.99
2023-05-02T01:36:51.381Z,10.12
2023-05-02T01:39:24.533Z,10.20
2023-05-02T01:41:55.735Z,10.36
2023-05-02T01:44:24.558Z,10.47
2023-05-02T01:46:55.353Z,10.29
2023-05-02T01:49:26.094Z,10.32
2023-05-02T01:51:53.531Z,10.36
2023-05-02T01:54:23.405Z,10.65
2023-05-02T01:56:52.162Z,10.60
2023-05-02T01:59:22.717Z,10.70
2023-05-02T02:01:52.500Z,10.60
2023-05-02T02:04:22.055Z,10.66
2023-05-02T02:06:56.329Z,10.64
2023-05-02T02:09:23.470Z,10.46
2023-05-02T02:12:07.504Z,10.37
2023-05-02T02:14:39.929Z,10.50
2023-05-02T02:17:20.357Z,10.59
2023-05-02T02:19:47.440Z,10.67
2023-05-02T02:22:15.425Z,10.83
2023-05-02T02:24:44.854Z,10.55
2023-05-02T02:27:11.873Z,10.55
2023-05-02T02:29:39.320Z,10.48
2023-05-02T02:32:06.278Z,10.26
2023-05-02T02:34:33.280Z,10.14
2023-05-02T02:37:31.875Z,10.06
2023-05-02T02:40:19.372Z,9.96
2023-05-02T02:43:08.642Z,10.00
2023-05-02T02:45:56.018Z,10.21
2023-05-02T02:48:55.626Z,10.15
2023-05-02T02:51:46.249Z,10.09
2023-05-02T02:54:58.099Z,10.18
2023-05-02T02:57:37.910Z,10.16
2023-05-02T03:00:16.185Z,10.21
2023-05-02T03:02:47.088Z,10.21
2023-05-02T03:05:15.486Z,10.14
2023-05-02T03:07:42.572Z,9.97
2023-05-02T03:10:09.812Z,9.98
2023-05-02T03:12:36.813Z,9.85
2023-05-02T03:15:20.360Z,9.93
2023-05-02T03:17:47.342Z,10.04
2023-05-02T03:20:14.333Z,9.97
2023-05-02T03:22:41.366Z,9.67
2023-05-02T03:25:08.928Z,9.53
2023-05-02T03:27:36.055Z,9.38
2023-05-02T03:30:03.159Z,9.43
2023-05-02T03:32:30.219Z,9.50
2023-05-02T03:34:58.568Z,9.01
2023-05-02T03:37:25.687Z,9.09
2023-05-02T03:39:52.642Z,8.85
2023-05-02T03:42:19.598Z,8.85
2023-05-02T03:44:46.460Z,9.06
2023-05-02T03:47:13.822Z,8.87
2023-05-02T03:49:41.017Z,8.95
2023-05-02T03:52:07.983Z,9.38
2023-05-02T03:54:34.968Z,9.35
2023-05-02T03:57:04.745Z,9.01
2023-05-02T03:59:35.319Z,9.27
2023-05-02T04:02:02.370Z,9.39
2023-05-02T04:04:29.356Z,9.46
2023-05-02T04:06:56.376Z,9.44
2023-05-02T04:09:25.377Z,9.42
2023-05-02T04:11:52.624Z,9.29
2023-05-02T04:14:19.561Z,9.10
2023-05-02T04:16:51.000Z,9.11
2023-05-02T04:19:19.144Z,9.01
2023-05-02T04:21:46.449Z,9.33
2023-05-02T04:24:14.558Z,9.20
2023-05-02T04:26:41.869Z,9.19
2023-05-02T04:29:08.824Z,9.37
2023-05-02T04:31:36.408Z,9.56
2023-05-02T04:34:04.352Z,9.40
2023-05-02T04:36:31.339Z,9.52
2023-05-02T04:38:58.283Z,9.68
2023-05-02T04:41:25.235Z,9.76
2023-05-02T04:43:52.174Z,9.71
2023-05-02T04:46:19.246Z,9.90
2023-05-02T04:48:46.389Z,9.95
2023-05-02T04:51:14.888Z,9.97
2023-05-02T04:53:43.275Z,10.15
2023-05-02T04:56:11.302Z,10.20
2023-05-02T04:58:38.314Z,10.22
2023-05-02T05:01:05.350Z,10.18
2023-05-02T05:03:33.640Z,10.28
2023-05-02T05:06:00.631Z,10.31
2023-05-02T05:08:27.532Z,10.32
2023-05-02T05:10:54.535Z,10.48
2023-05-02T05:13:21.540Z,10.50
2023-05-02T05:15:48.619Z,10.59
2023-05-02T05:18:15.628Z,10.78
2023-05-02T05:20:42.528Z,10.64
2023-05-02T05:23:09.416Z,10.69
2023-05-02T05:25:36.414Z,10.88
2023-05-02T05:28:03.367Z,10.91
2023-05-02T05:30:31.168Z,10.94
2023-05-02T05:32:58.732Z,10.91
2023-05-02T05:35:26.097Z,11.14
2023-05-02T05:37:53.785Z,11.21
2023-05-02T05:40:21.439Z,11.42
2023-05-02T05:42:48.296Z,11.61
2023-05-02T05:45:17.185Z,11.65
2023-05-02T05:47:44.216Z,11.60
2023-05-02T05:50:11.394Z,11.49
2023-05-02T05:52:38.385Z,11.48
2023-05-02T05:55:06.828Z,11.38
2023-05-02T05:57:33.805Z,11.45
2023-05-02T06:00:00.990Z,11.51
2023-05-02T06:02:28.303Z,11.57
2023-05-02T06:04:55.289Z,11.86
2023-05-02T06:07:22.311Z,11.89
2023-05-02T06:09:49.252Z,12.16
2023-05-02T06:12:16.578Z,11.98
2023-05-02T06:14:43.600Z,12.07
2023-05-02T06:17:11.533Z,12.34
2023-05-02T06:19:38.433Z,12.43
2023-05-02T06:22:05.664Z,12.59
2023-05-02T06:24:32.672Z,12.58
2023-05-02T06:27:00.122Z,12.73
2023-05-02T06:29:27.117Z,12.77
2023-05-02T06:31:56.923Z,12.90
2023-05-02T06:34:24.025Z,12.78
2023-05-02T06:36:56.567Z,13.04
2023-05-02T06:39:23.645Z,13.18
2023-05-02T06:41:50.815Z,12.98
2023-05-02T06:44:17.777Z,13.03
2023-05-02T06:46:44.728Z,13.30
2023-05-02T06:49:11.743Z,13.50
2023-05-02T06:51:39.147Z,13.56
2023-05-02T06:54:06.463Z,13.64
2023-05-02T06:56:33.488Z,13.75
2023-05-02T06:59:00.979Z,13.91
2023-05-02T07:01:28.224Z,14.07
2023-05-02T07:03:55.143Z,14.29
2023-05-02T07:06:22.170Z,14.21
2023-05-02T07:08:49.169Z,14.25
2023-05-02T07:11:16.173Z,14.45
2023-05-02T07:13:43.374Z,14.49
2023-05-02T07:16:10.391Z,14.47
2023-05-02T07:18:37.430Z,14.77
2023-05-02T07:21:04.972Z,15.13
2023-05-02T07:23:32.174Z,15.33
2023-05-02T07:25:59.173Z,15.68
2023-05-02T07:28:26.102Z,15.61
2023-05-02T07:30:53.030Z,15.15
2023-05-02T07:33:20.093Z,15.25
2023-05-02T07:35:47.614Z,15.12
2023-05-02T07:38:14.517Z,14.85
2023-05-02T07:40:41.831Z,14.84
2023-05-02T07:43:10.987Z,14.93
2023-05-02T07:45:38.200Z,15.02
2023-05-02T07:48:05.238Z,14.96
2023-05-02T07:50:32.250Z,15.43
2023-05-02T07:52:59.271Z,15.15
2023-05-02T07:55:29.142Z,15.31
2023-05-02T07:57:56.102Z,15.26
2023-05-02T08:00:23.172Z,14.93
2023-05-02T08:02:50.180Z,14.97
2023-05-02T08:05:17.940Z,14.96
2023-05-02T08:07:44.981Z,14.65
2023-05-02T08:10:11.931Z,14.62
2023-05-02T08:12:40.791Z,14.93
2023-05-02T08:15:12.031Z,15.07
2023-05-02T08:17:39.036Z,14.68
2023-05-02T08:20:06.841Z,14.96
2023-05-02T08:22:33.755Z,14.92
2023-05-02T08:25:00.896Z,15.39
2023-05-02T08:27:27.972Z,15.65
2023-05-02T08:29:54.932Z,15.25
2023-05-02T08:32:22.469Z,15.21
2023-05-02T08:34:49.534Z,14.77
2023-05-02T08:37:16.508Z,14.83
2023-05-02T08:39:43.425Z,14.70
2023-05-02T08:42:10.429Z,15.03
2023-05-02T08:44:38.126Z,15.41
2023-05-02T08:47:06.882Z,15.42
2023-05-02T08:49:36.558Z,15.10
2023-05-02T08:52:04.699Z,15.05
2023-05-02T08:54:32.022Z,15.33
2023-05-02T08:57:02.358Z,16.02
2023-05-02T08:59:29.728Z,16.44
2023-05-02T09:02:06.139Z,16.39
2023-05-02T09:04:37.029Z,15.69
2023-05-02T09:07:04.013Z,15.14
2023-05-02T09:09:32.806Z,15.32
2023-05-02T09:12:00.104Z,15.70
2023-05-02T09:14:27.137Z,15.60
2023-05-02T09:17:00.893Z,15.73
2023-05-02T09:19:28.408Z,16.00
2023-05-02T09:22:04.315Z,16.07
2023-05-02T09:24:32.073Z,15.97
2023-05-02T09:27:02.719Z,15.82
2023-05-02T09:29:36.401Z,15.97
2023-05-02T09:32:05.334Z,16.26
2023-05-02T09:34:32.768Z,16.41
2023-05-02T09:36:59.733Z,16.69
2023-05-02T09:39:31.743Z,17.08
2023-05-02T09:41:59.434Z,16.83
2023-05-02T09:44:36.836Z,16.74
2023-05-02T09:47:03.995Z,16.91
2023-05-02T09:49:41.068Z,16.33
2023-05-02T09:52:22.278Z,16.79
2023-05-02T09:54:53.165Z,17.33
2023-05-02T09:57:20.599Z,17.28
2023-05-02T09:59:58.682Z,17.69
2023-05-02T10:02:26.332Z,18.35
2023-05-02T10:04:57.623Z,18.09
2023-05-02T10:07:26.438Z,17.35
2023-05-02T10:09:57.225Z,16.51
2023-05-02T10:12:26.940Z,16.39
2023-05-02T10:15:01.343Z,16.25
2023-05-02T10:17:32.396Z,16.01
2023-05-02T10:20:07.874Z,16.03
2023-05-02T10:22:36.761Z,15.93
2023-05-02T10:25:05.042Z,15.83
2023-05-02T10:27:33.125Z,15.45
2023-05-02T10:30:01.304Z,15.10
2023-05-02T10:32:31.832Z,15.18
2023-05-02T10:35:05.458Z,15.47
2023-05-02T10:37:36.658Z,15.45
2023-05-02T10:40:05.889Z,15.41
2023-05-02T10:42:39.376Z,15.55
2023-05-02T10:45:47.402Z,15.55
2023-05-02T10:48:26.839Z,15.38
2023-05-02T10:51:01.270Z,15.37
2023-05-02T10:53:36.418Z,15.45
2023-05-02T10:56:22.587Z,15.63
2023-05-02T10:58:52.067Z,15.70
2023-05-02T11:01:26.415Z,15.49
2023-05-02T11:04:04.679Z,15.37
2023-05-02T11:06:55.042Z,15.39
2023-05-02T11:09:25.090Z,15.47
2023-05-02T11:11:54.275Z,15.56
2023-05-02T11:14:30.793Z,15.70
2023-05-02T11:17:06.573Z,15.71
2023-05-02T11:19:45.598Z,16.06
2023-05-02T11:22:23.229Z,16.90
2023-05-02T11:24:51.409Z,17.10
2023-05-02T11:27:30.742Z,17.77
2023-05-02T11:30:00.420Z,17.71
2023-05-02T11:32:46.209Z,18.07
2023-05-02T11:35:27.005Z,18.36
2023-05-02T11:37:59.954Z,18.50
2023-05-02T11:40:28.421Z,18.49
2023-05-02T11:42:57.524Z,18.54
2023-05-02T11:45:37.306Z,18.14
2023-05-02T11:48:08.246Z,17.94
2023-05-02T11:50:50.074Z,18.45
2023-05-02T11:53:24.138Z,18.07
2023-05-02T11:55:59.689Z,17.60
2023-05-02T11:58:33.329Z,18.42
2023-05-02T12:01:15.898Z,18.09
2023-05-02T12:03:43.181Z,17.99
2023-05-02T12:06:13.503Z,18.22
2023-05-02T12:08:43.280Z,18.66
2023-05-02T12:11:13.447Z,18.83
2023-05-02T12:13:49.777Z,18.66
2023-05-02T12:16:18.608Z,17.88
2023-05-02T12:18:47.446Z,18.37
2023-05-02T12:21:14.707Z,18.67
2023-05-02T12:23:42.462Z,18.52
2023-05-02T12:26:29.551Z,19.19
2023-05-02T12:28:57.171Z,19.16
2023-05-02T12:31:27.210Z,18.86
2023-05-02T12:33:57.440Z,18.26
2023-05-02T12:36:24.579Z,17.91
2023-05-02T12:38:59.893Z,18.09
2023-05-02T12:41:34.082Z,18.48
2023-05-02T12:44:01.482Z,18.84
2023-05-02T12:46:28.644Z,18.56
2023-05-02T12:49:09.764Z,18.72
2023-05-02T12:51:37.836Z,18.78
2023-05-02T12:54:05.456Z,18.84
2023-05-02T12:56:40.548Z,19.20
2023-05-02T12:59:08.181Z,19.39
2023-05-02T13:01:35.924Z,18.62
2023-05-02T13:04:03.567Z,17.81
2023-05-02T13:06:31.313Z,18.27
2023-05-02T13:08:58.473Z,18.80
2023-05-02T13:11:25.562Z,17.65
2023-05-02T13:13:53.531Z,17.64
2023-05-02T13:16:21.337Z,17.72
2023-05-02T13:18:48.356Z,17.72
2023-05-02T13:21:16.121Z,17.90
2023-05-02T13:23:44.243Z,17.39
2023-05-02T13:26:11.870Z,17.77
2023-05-02T13:28:38.861Z,18.51
2023-05-02T13:31:06.056Z,19.02
2023-05-02T13:33:33.218Z,19.14
2023-05-02T13:36:00.483Z,18.95
2023-05-02T13:38:27.521Z,18.87
2023-05-02T13:40:54.532Z,18.78
2023-05-02T13:43:21.490Z,19.14
2023-05-02T13:45:49.086Z,18.85
2023-05-02T13:48:16.407Z,18.49
2023-05-02T13:50:43.537Z,18.39
2023-05-02T13:53:11.268Z,18.25
2023-05-02T13:55:39.300Z,18.29
2023-05-02T13:58:06.285Z,18.61
2023-05-02T14:00:33.417Z,18.57
2023-05-02T14:03:00.838Z,18.69
2023-05-02T14:05:27.934Z,18.61
2023-05-02T14:07:54.849Z,18.63
2023-05-02T14:10:21.923Z,18.87
2023-05-02T14:12:49.294Z,18.61
2023-05-02T14:15:16.445Z,18.63
2023-05-02T14:17:43.574Z,18.53
2023-05-02T14:20:11.159Z,18.52
2023-05-02T14:22:38.093Z,18.57
2023-05-02T14:25:06.176Z,18.83
2023-05-02T14:27:33.110Z,18.76
2023-05-02T14:30:00.588Z,18.84
2023-05-02T14:32:27.972Z,18.62
2023-05-02T14:34:55.008Z,18.25
2023-05-02T14:37:21.926Z,18.44
2023-05-02T14:39:54.785Z,18.32
2023-05-02T14:42:25.614Z,18.49
2023-05-02T14:44:53.486Z,18.35
2023-05-02T14:47:21.095Z,18.22
2023-05-02T14:49:48.132Z,18.30
2023-05-02T14:52:15.048Z,18.52
2023-05-02T14:54:42.083Z,18.53
2023-05-02T14:57:09.317Z,18.56
2023-05-02T14:59:37.231Z,18.37
2023-05-02T15:02:04.567Z,18.34
2023-05-02T15:04:31.972Z,18.45
2023-05-02T15:07:01.086Z,18.35
2023-05-02T15:09:29.110Z,18.55
2023-05-02T15:11:56.677Z,18.45
2023-05-02T15:14:24.867Z,18.44
2023-05-02T15:16:51.925Z,18.52
2023-05-02T15:19:19.010Z,18.52
2023-05-02T15:21:46.149Z,18.85
2023-05-02T15:24:13.272Z,18.60
2023-05-02T15:26:41.223Z,18.66
2023-05-02T15:29:08.235Z,18.76
2023-05-02T15:31:35.332Z,18.28
2023-05-02T15:34:02.391Z,18.15
2023-05-02T15:36:30.340Z,18.35
2023-05-02T15:38:57.435Z,18.19
2023-05-02T15:41:27.313Z,18.20
2023-05-02T15:43:54.282Z,18.26
2023-05-02T15:46:21.209Z,18.15
2023-05-02T15:48:48.497Z,18.02
2023-05-02T15:51:15.765Z,17.38
2023-05-02T15:53:44.853Z,16.99
2023-05-02T15:56:12.423Z,17.05
2023-05-02T15:58:40.331Z,17.45
2023-05-02T16:01:07.653Z,17.54
2023-05-02T16:03:34.990Z,17.57
2023-05-02T16:06:02.283Z,17.59
2023-05-02T16:08:29.469Z,17.64
2023-05-02T16:10:57.827Z,17.49
2023-05-02T16:13:24.781Z,17.15
2023-05-02T16:15:52.532Z,16.80
2023-05-02T16:18:19.505Z,16.72
2023-05-02T16:20:49.742Z,16.79
2023-05-02T16:23:17.882Z,16.95
2023-05-02T16:25:48.036Z,16.85
2023-05-02T16:28:15.100Z,16.50
2023-05-02T16:30:42.013Z,16.54
2023-05-02T16:33:09.128Z,16.88
2023-05-02T16:35:36.115Z,17.13
2023-05-02T16:38:03.991Z,17.28
2023-05-02T16:40:31.251Z,17.33
2023-05-02T16:42:59.350Z,17.33
2023-05-02T16:45:27.563Z,17.43
2023-05-02T16:47:54.538Z,17.19
2023-05-02T16:50:21.773Z,17.29
2023-05-02T16:52:48.803Z,17.26
2023-05-02T16:55:16.588Z,17.22
2023-05-02T16:57:43.544Z,17.27
2023-05-02T17:00:12.395Z,17.12
2023-05-02T17:02:39.389Z,17.13
2023-05-02T17:05:07.193Z,17.04
2023-05-02T17:07:34.204Z,16.96
2023-05-02T17:10:02.433Z,16.90
2023-05-02T17:12:29.534Z,16.74
2023-05-02T17:14:56.426Z,16.89
2023-05-02T17:17:23.913Z,16.81
2023-05-02T17:19:51.349Z,16.82
2023-05-02T17:22:19.105Z,16.63
2023-05-02T17:24:48.420Z,16.58
2023-05-02T17:27:15.636Z,16.51
2023-05-02T17:29:42.608Z,16.51
2023-05-02T17:32:11.253Z,16.53
2023-05-02T17:34:38.797Z,16.95
2023-05-02T17:37:07.301Z,17.12
2023-05-02T17:39:34.469Z,17.43
2023-05-02T17:42:01.519Z,17.19
2023-05-02T17:44:31.358Z,16.67
2023-05-02T17:46:58.813Z,16.36
2023-05-02T17:49:25.795Z,16.12
2023-05-02T17:51:52.662Z,16.05
2023-05-02T17:54:19.806Z,15.86
2023-05-02T17:56:46.901Z,15.89
2023-05-02T17:59:14.149Z,15.75
2023-05-02T18:01:41.223Z,15.36
2023-05-02T18:04:12.419Z,15.67
2023-05-02T18:06:39.771Z,15.42
2023-05-02T18:09:07.334Z,15.54
2023-05-02T18:11:35.190Z,15.36
2023-05-02T18:14:06.016Z,15.16
2023-05-02T18:16:34.447Z,14.96
2023-05-02T18:19:02.116Z,14.84
2023-05-02T18:21:29.243Z,14.95
2023-05-02T18:23:57.013Z,14.83
2023-05-02T18:26:24.083Z,14.88
2023-05-02T18:28:53.715Z,14.75
2023-05-02T18:31:21.159Z,14.73
2023-05-02T18:33:48.147Z,14.47
2023-05-02T18:36:20.504Z,14.44
2023-05-02T18:38:47.698Z,14.19
2023-05-02T18:41:14.677Z,14.08
2023-05-02T18:43:41.684Z,14.19
2023-05-02T18:46:09.339Z,14.19
2023-05-02T18:48:36.893Z,14.27
2023-05-02T18:51:04.724Z,14.03
2023-05-02T18:53:31.936Z,13.69
2023-05-02T18:55:58.921Z,13.72
2023-05-02T18:58:25.938Z,13.74
2023-05-02T19:00:52.967Z,13.69
2023-05-02T19:03:20.128Z,13.50
2023-05-02T19:05:47.226Z,13.48
2023-05-02T19:08:14.244Z,13.22
2023-05-02T19:10:41.397Z,13.24
2023-05-02T19:13:09.117Z,13.27
2023-05-02T19:15:36.119Z,13.31
2023-05-02T19:18:03.675Z,12.92
2023-05-02T19:20:30.733Z,12.73
2023-05-02T19:23:17.659Z,12.47
2023-05-02T19:25:46.414Z,12.17
2023-05-02T19:28:15.604Z,12.39
2023-05-02T19:30:44.160Z,12.30
2023-05-02T19:33:11.637Z,12.31
2023-05-02T19:35:38.855Z,12.16
2023-05-02T19:38:05.905Z,11.99
2023-05-02T19:40:32.875Z,11.77
2023-05-02T19:42:59.921Z,11.75
2023-05-02T19:45:26.964Z,11.85
2023-05-02T19:47:53.919Z,12.02
2023-05-02T19:50:20.965Z,12.10
2023-05-02T19:52:47.858Z,12.02
2023-05-02T19:55:16.137Z,12.08
2023-05-02T19:57:44.593Z,12.06
2023-05-02T20:00:13.962Z,11.95
2023-05-02T20:02:41.109Z,11.97
2023-05-02T20:05:08.760Z,12.09
2023-05-02T20:07:36.102Z,12.07
2023-05-02T20:10:03.511Z,11.89
2023-05-02T20:12:30.856Z,11.78
2023-05-02T20:14:57.982Z,11.95
2023-05-02T20:17:25.474Z,11.77
2023-05-02T20:19:52.405Z,11.74
2023-05-02T20:22:19.461Z,11.71
2023-05-02T20:24:46.495Z,11.64
2023-05-02T20:27:15.305Z,11.59
2023-05-02T20:29:42.276Z,11.53
2023-05-02T20:32:09.283Z,11.48
2023-05-02T20:34:36.460Z,11.37
2023-05-02T20:37:06.933Z,11.44
2023-05-02T20:39:34.076Z,11.37
2023-05-02T20:42:01.388Z,11.34
2023-05-02T20:44:28.454Z,11.21
2023-05-02T20:46:55.540Z,11.05
2023-05-02T20:49:22.504Z,11.02
2023-05-02T20:51:50.220Z,10.95
2023-05-02T20:54:18.165Z,11.01
2023-05-02T20:56:45.489Z,11.08
2023-05-02T20:59:12.478Z,11.03
2023-05-02T21:01:39.464Z,10.94
2023-05-02T21:04:06.474Z,10.90
2023-05-02T21:06:33.744Z,10.99
2023-05-02T21:09:01.938Z,10.76
2023-05-02T21:11:29.416Z,10.67
2023-05-02T21:13:56.304Z,10.45
2023-05-02T21:16:23.334Z,10.66
2023-05-02T21:18:50.354Z,10.54
2023-05-02T21:21:17.300Z,10.56
2023-05-02T21:23:44.323Z,10.42
2023-05-02T21:26:11.335Z,10.42
2023-05-02T21:28:38.826Z,10.39
2023-05-02T21:31:07.416Z,10.38
2023-05-02T21:33:34.797Z,10.25
2023-05-02T21:36:01.792Z,10.27
2023-05-02T21:38:29.256Z,10.25
2023-05-02T21:40:56.265Z,10.27
2023-05-02T21:43:23.205Z,10.16
2023-05-02T21:45:50.488Z,10.18
2023-05-02T21:48:17.776Z,9.93
2023-05-02T21:50:45.471Z,9.88
2023-05-02T21:53:13.313Z,9.91
2023-05-02T21:55:41.066Z,9.94
2023-05-02T21:58:10.273Z,9.87
2023-05-02T22:00:39.118Z,9.88
2023-05-02T22:03:08.604Z,9.87
2023-05-02T22:05:39.905Z,9.75
2023-05-02T22:08:08.640Z,9.64
2023-05-02T22:10:41.170Z,9.56
2023-05-02T22:13:12.351Z,9.53
2023-05-02T22:15:47.283Z,9.55
2023-05-02T22:18:16.800Z,9.51
2023-05-02T22:20:45.437Z,9.57
2023-05-02T22:23:12.861Z,9.39
2023-05-02T22:25:47.388Z,9.24
2023-05-02T22:28:14.340Z,9.15
2023-05-02T22:30:43.011Z,9.08
2023-05-02T22:33:10.428Z,9.15
2023-05-02T22:35:37.963Z,9.17
2023-05-02T22:38:06.149Z,9.21
2023-05-02T22:40:33.301Z,9.17
2023-05-02T22:43:01.284Z,9.08
2023-05-02T22:45:28.179Z,8.87
2023-05-02T22:47:55.426Z,8.80
2023-05-02T22:50:22.473Z,8.63
2023-05-02T22:52:49.491Z,8.35
2023-05-02T22:55:16.615Z,8.19
2023-05-02T22:57:43.750Z,8.23
2023-05-02T23:00:12.339Z,8.21
2023-05-02T23:02:39.552Z,8.35
2023-05-02T23:05:07.269Z,8.42
2023-05-02T23:07:34.191Z,8.61
2023-05-02T23:10:01.619Z,8.76
2023-05-02T23:12:29.010Z,8.76
2023-05-02T23:14:56.839Z,8.96
2023-05-02T23:17:24.840Z,8.92
2023-05-02T23:19:51.909Z,8.79
2023-05-02T23:22:18.822Z,8.75
2023-05-02T23:24:48.827Z,8.76
2023-05-02T23:27:15.884Z,8.76
2023-05-02T23:29:42.822Z,8.75
2023-05-02T23:32:09.967Z,8.63
2023-05-02T23:34:37.169Z,8.63
2023-05-02T23:37:06.520Z,8.60
2023-05-02T23:39:33.747Z,8.52
2023-05-02T23:42:03.676Z,8.50
2023-05-02T23:44:31.401Z,8.52
2023-05-02T23:47:01.481Z,8.49
2023-05-02T23:49:28.408Z,8.37
2023-05-02T23:51:55.381Z,8.38
2023-05-02T23:54:22.486Z,8.19
2023-05-02T23:56:49.548Z,8.21
2023-05-02T23:59:16.642Z,8.19
